createdAt,value
2022-10-02T00:01:53.532Z,100131.72
2022-10-02T00:04:22.674Z,100138.84
2022-10-02T00:06:50.845Z,100137.03
2022-10-02T00:09:24.506Z,100135.53
2022-10-02T00:11:54.627Z,100143.31
2022-10-02T00:14:23.383Z,100135.53
2022-10-02T00:16:51.515Z,100132.88
2022-10-02T00:19:19.639Z,100140.94
2022-10-02T00:22:07.768Z,100136.19
2022-10-02T00:24:38.325Z,100138.84
2022-10-02T00:27:15.194Z,100138.00
2022-10-02T00:29:48.547Z,100147.66
2022-10-02T00:32:21.466Z,100123.09
2022-10-02T00:35:08.144Z,100088.84
2022-10-02T00:37:38.294Z,100151.19
2022-10-02T00:40:09.734Z,100152.97
2022-10-02T00:42:49.767Z,100145.09
2022-10-02T00:45:34.718Z,100144.38
2022-10-02T00:48:05.114Z,100151.28
2022-10-02T00:50:36.458Z,100127.84
2022-10-02T00:53:15.993Z,100158.28
2022-10-02T00:55:49.196Z,100157.47
2022-10-02T00:58:52.368Z,100165.63
2022-10-02T01:01:23.497Z,100157.75
2022-10-02T01:03:53.157Z,100139.34
2022-10-02T01:06:20.624Z,100161.44
2022-10-02T01:08:48.072Z,100169.41
2022-10-02T01:11:15.500Z,100162.28
2022-10-02T01:13:42.900Z,100162.19
2022-10-02T01:16:10.533Z,100163.81
2022-10-02T01:18:39.335Z,100150.59
2022-10-02T01:21:11.192Z,100156.13
2022-10-02T01:23:40.854Z,100144.66
2022-10-02T01:26:09.612Z,100145.38
2022-10-02T01:28:37.025Z,100087.63
2022-10-02T01:31:07.392Z,100101.41
2022-10-02T01:33:34.984Z,100120.53
2022-10-02T01:36:02.485Z,100157.94
2022-10-02T01:38:30.222Z,100150.06
2022-10-02T01:40:57.731Z,100154.63
2022-10-02T01:43:27.644Z,100159.81
2022-10-02T01:45:59.379Z,100141.81
2022-10-02T01:48:34.624Z,100159.25
2022-10-02T01:51:09.913Z,100154.69
2022-10-02T01:53:39.853Z,100160.03
2022-10-02T01:56:11.689Z,100094.56
2022-10-02T01:58:45.649Z,100159.34
2022-10-02T02:01:18.220Z,100148.75
2022-10-02T02:03:49.239Z,100166.78
2022-10-02T02:06:20.304Z,100163.81
2022-10-02T02:08:49.452Z,100158.50
2022-10-02T02:11:17.629Z,100164.03
2022-10-02T02:13:48.699Z,100158.91
2022-10-02T02:16:21.177Z,100124.91
2022-10-02T02:18:50.875Z,100165.03
2022-10-02T02:21:22.100Z,100164.13
2022-10-02T02:23:49.692Z,100152.53
2022-10-02T02:26:18.676Z,100166.00
2022-10-02T02:28:49.099Z,100166.78
2022-10-02T02:31:17.574Z,100166.97
2022-10-02T02:33:46.922Z,100153.78
2022-10-02T02:36:16.669Z,100166.00
2022-10-02T02:38:46.791Z,100170.53
2022-10-02T02:41:14.671Z,100164.41
2022-10-02T02:43:44.275Z,100174.06
2022-10-02T02:46:16.235Z,100117.78
2022-10-02T02:48:44.658Z,100165.41
2022-10-02T02:51:14.263Z,100104.03
2022-10-02T02:53:42.623Z,100170.91
2022-10-02T02:56:11.284Z,100158.97
2022-10-02T02:58:40.786Z,100158.97
2022-10-02T03:01:08.232Z,100168.34
2022-10-02T03:03:37.014Z,100170.09
2022-10-02T03:06:07.739Z,100110.28
2022-10-02T03:08:36.322Z,100156.41
2022-10-02T03:11:07.215Z,100168.94
2022-10-02T03:13:43.319Z,100167.78
2022-10-02T03:16:19.199Z,100165.22
2022-10-02T03:18:57.519Z,100164.41
2022-10-02T03:21:27.468Z,100166.88
2022-10-02T03:23:59.459Z,100142.84
2022-10-02T03:26:30.504Z,100157.34
2022-10-02T03:28:58.419Z,100169.53
2022-10-02T03:31:26.409Z,100163.16
2022-10-02T03:33:55.165Z,100162.47
2022-10-02T03:36:24.481Z,100162.28
2022-10-02T03:39:12.584Z,100128.72
2022-10-02T03:41:40.059Z,100173.09
2022-10-02T03:44:07.563Z,100169.63
2022-10-02T03:46:35.258Z,100177.59
2022-10-02T03:49:04.245Z,100173.19
2022-10-02T03:51:31.653Z,100167.16
2022-10-02T03:53:59.086Z,100166.28
2022-10-02T03:56:31.362Z,100160.97
2022-10-02T03:59:00.013Z,100157.44
2022-10-02T04:01:29.332Z,100096.84
2022-10-02T04:03:58.390Z,100162.75
2022-10-02T04:06:29.113Z,100162.75
2022-10-02T04:08:59.089Z,100164.78
2022-10-02T04:11:28.500Z,100120.94
2022-10-02T04:13:58.408Z,100147.59
2022-10-02T04:16:28.705Z,100167.34
2022-10-02T04:18:56.990Z,100171.69
2022-10-02T04:21:34.236Z,100167.34
2022-10-02T04:24:05.429Z,100128.91
2022-10-02T04:26:34.934Z,100172.66
2022-10-02T04:29:06.469Z,100164.78
2022-10-02T04:31:33.934Z,100167.34
2022-10-02T04:34:02.801Z,100171.78
2022-10-02T04:36:39.949Z,100170.09
2022-10-02T04:39:18.989Z,100167.16
2022-10-02T04:41:55.245Z,100166.19
2022-10-02T04:44:30.727Z,100133.84
2022-10-02T04:47:08.921Z,100148.44
2022-10-02T04:49:55.780Z,100157.53
2022-10-02T04:52:32.739Z,100085.81
2022-10-02T04:55:32.693Z,100101.19
2022-10-02T04:58:09.415Z,100129.09
2022-10-02T05:00:38.016Z,100161.06
2022-10-02T05:03:17.645Z,100175.50
2022-10-02T05:06:07.368Z,100177.97
2022-10-02T05:08:54.953Z,100106.22
2022-10-02T05:11:34.460Z,100167.53
2022-10-02T05:14:10.565Z,100178.97
2022-10-02T05:16:47.575Z,100180.72
2022-10-02T05:19:34.336Z,100187.63
2022-10-02T05:22:11.879Z,100189.53
2022-10-02T05:24:50.228Z,100187.81
2022-10-02T05:27:26.272Z,100185.06
2022-10-02T05:30:06.417Z,100164.47
2022-10-02T05:32:51.697Z,100187.72
2022-10-02T05:35:25.665Z,100184.38
2022-10-02T05:37:58.370Z,100191.44
2022-10-02T05:40:29.895Z,100194.09
2022-10-02T05:43:01.379Z,100180.59
2022-10-02T05:45:30.572Z,100198.53
2022-10-02T05:48:04.041Z,100202.16
2022-10-02T05:50:32.506Z,100091.16
2022-10-02T05:53:01.530Z,100163.91
2022-10-02T05:55:33.207Z,100208.50
2022-10-02T05:58:04.280Z,100116.97
2022-10-02T06:00:33.858Z,100204.91
2022-10-02T06:03:08.106Z,100211.91
2022-10-02T06:05:42.277Z,100203.63
2022-10-02T06:08:10.848Z,100224.34
2022-10-02T06:10:42.537Z,100224.44
2022-10-02T06:13:11.416Z,100221.03
2022-10-02T06:15:40.837Z,100219.13
2022-10-02T06:18:08.758Z,100161.97
2022-10-02T06:20:38.599Z,100216.47
2022-10-02T06:23:08.244Z,100220.84
2022-10-02T06:25:38.167Z,100217.22
2022-10-02T06:28:10.456Z,100211.91
2022-10-02T06:30:39.562Z,100217.13
2022-10-02T06:33:10.732Z,100227.66
2022-10-02T06:35:46.179Z,100206.28
2022-10-02T06:38:20.702Z,100232.13
2022-10-02T06:40:50.647Z,100230.50
2022-10-02T06:43:28.748Z,100227.75
2022-10-02T06:46:00.550Z,100231.28
2022-10-02T06:48:37.199Z,100207.25
2022-10-02T06:51:07.486Z,100238.19
2022-10-02T06:53:43.958Z,100241.63
2022-10-02T06:56:19.063Z,100202.41
2022-10-02T06:58:55.420Z,100241.53
2022-10-02T07:01:28.525Z,100238.97
2022-10-02T07:04:05.598Z,100209.31
2022-10-02T07:06:39.363Z,100237.63
2022-10-02T07:09:42.674Z,100239.72
2022-10-02T07:12:18.552Z,100200.88
2022-10-02T07:14:55.829Z,100262.63
2022-10-02T07:17:33.097Z,100253.00
2022-10-02T07:20:13.827Z,100259.97
2022-10-02T07:22:49.227Z,100254.63
2022-10-02T07:25:32.271Z,100255.56
2022-10-02T07:28:04.064Z,100264.31
2022-10-02T07:30:35.304Z,100196.78
2022-10-02T07:33:03.908Z,100187.03
2022-10-02T07:35:41.906Z,100207.22
2022-10-02T07:38:20.845Z,100265.81
2022-10-02T07:40:51.663Z,100265.72
2022-10-02T07:43:26.155Z,100244.38
2022-10-02T07:45:57.144Z,100266.78
2022-10-02T07:48:29.783Z,100270.41
2022-10-02T07:51:28.555Z,100271.03
2022-10-02T07:53:57.832Z,100191.75
2022-10-02T07:56:25.294Z,100274.56
2022-10-02T07:58:53.656Z,100245.50
2022-10-02T08:01:23.928Z,100281.59
2022-10-02T08:03:52.917Z,100288.63
2022-10-02T08:06:20.341Z,100285.19
2022-10-02T08:08:51.254Z,100234.69
2022-10-02T08:11:21.600Z,100191.19
2022-10-02T08:13:50.620Z,100295.56
2022-10-02T08:16:18.162Z,100293.94
2022-10-02T08:18:48.657Z,100227.44
2022-10-02T08:21:17.736Z,100289.19
2022-10-02T08:23:48.277Z,100274.72
2022-10-02T08:26:17.612Z,100313.78
2022-10-02T08:28:46.264Z,100304.84
2022-10-02T08:31:14.321Z,100266.00
2022-10-02T08:33:41.889Z,100306.22
2022-10-02T08:36:36.821Z,100295.59
2022-10-02T08:39:12.430Z,100310.28
2022-10-02T08:42:10.688Z,100259.69
2022-10-02T08:44:57.467Z,100290.91
2022-10-02T08:47:44.153Z,100305.94
2022-10-02T08:50:41.025Z,100319.75
2022-10-02T08:53:44.368Z,100319.47
2022-10-02T08:56:22.912Z,100317.38
2022-10-02T08:59:25.887Z,100320.59
2022-10-02T09:02:19.664Z,100323.16
2022-10-02T09:05:13.548Z,100318.59
2022-10-02T09:08:08.231Z,100316.63
2022-10-02T09:11:07.057Z,100311.41
2022-10-02T09:14:13.056Z,100321.47
2022-10-02T09:16:45.355Z,100326.00
2022-10-02T09:19:20.641Z,100319.28
2022-10-02T09:21:52.051Z,100336.38
2022-10-02T09:24:59.148Z,100330.19
2022-10-02T09:27:52.775Z,100333.81
2022-10-02T09:30:22.036Z,100333.91
2022-10-02T09:33:27.129Z,100262.06
2022-10-02T09:36:28.964Z,100301.22
2022-10-02T09:39:09.614Z,100326.69
2022-10-02T09:42:24.473Z,100332.75
2022-10-02T09:45:21.112Z,100333.69
2022-10-02T09:48:18.607Z,100332.75
2022-10-02T09:50:56.865Z,100320.22
2022-10-02T09:53:45.583Z,100330.84
2022-10-02T09:56:40.768Z,100296.75
2022-10-02T09:59:20.264Z,100322.47
2022-10-02T10:02:02.520Z,100334.19
2022-10-02T10:05:06.645Z,100322.19
2022-10-02T10:07:54.745Z,100336.47
2022-10-02T10:10:37.988Z,100254.22
2022-10-02T10:13:32.139Z,100331.78
2022-10-02T10:16:22.758Z,100323.34
2022-10-02T10:19:07.474Z,100338.53
2022-10-02T10:22:02.228Z,100351.75
2022-10-02T10:24:46.785Z,100344.69
2022-10-02T10:27:22.201Z,100338.53
2022-10-02T10:29:59.888Z,100328.47
2022-10-02T10:33:09.808Z,100336.81
2022-10-02T10:36:33.547Z,100344.88
2022-10-02T10:39:06.879Z,100308.06
2022-10-02T10:42:12.772Z,100283.34
2022-10-02T10:45:12.860Z,100334.44
2022-10-02T10:47:46.757Z,100332.34
2022-10-02T10:50:38.609Z,100354.41
2022-10-02T10:53:26.356Z,100338.44
2022-10-02T10:56:07.118Z,100348.22
2022-10-02T10:58:41.802Z,100349.19
2022-10-02T11:01:14.052Z,100345.66
2022-10-02T11:04:08.303Z,100359.84
2022-10-02T11:06:52.824Z,100358.97
2022-10-02T11:09:42.737Z,100351.09
2022-10-02T11:12:32.952Z,100320.50
2022-10-02T11:15:04.550Z,100347.84
2022-10-02T11:17:44.649Z,100356.78
2022-10-02T11:20:20.071Z,100354.22
2022-10-02T11:23:23.053Z,100361.25
2022-10-02T11:26:32.260Z,100356.97
2022-10-02T11:29:12.445Z,100356.13
2022-10-02T11:31:50.532Z,100357.16
2022-10-02T11:34:48.259Z,100347.28
2022-10-02T11:37:24.173Z,100349.09
2022-10-02T11:40:16.415Z,100352.72
2022-10-02T11:43:02.794Z,100355.19
2022-10-02T11:45:52.969Z,100360.31
2022-10-02T11:48:40.704Z,100362.97
2022-10-02T11:51:23.569Z,100329.44
2022-10-02T11:54:18.600Z,100367.91
2022-10-02T11:57:01.671Z,100355.53
2022-10-02T11:59:50.449Z,100370.19
2022-10-02T12:02:21.691Z,100363.13
2022-10-02T12:04:54.869Z,100346.06
2022-10-02T12:07:28.566Z,100330.47
2022-10-02T12:10:04.332Z,100375.13
2022-10-02T12:12:41.861Z,100366.19
2022-10-02T12:15:15.423Z,100321.81
2022-10-02T12:18:06.944Z,100368.84
2022-10-02T12:21:02.881Z,100310.53
2022-10-02T12:23:52.099Z,100342.44
2022-10-02T12:26:49.066Z,100364.19
2022-10-02T12:29:19.264Z,100361.63
2022-10-02T12:31:51.358Z,100369.50
2022-10-02T12:34:31.392Z,100363.03
2022-10-02T12:37:00.802Z,100372.81
2022-10-02T12:39:36.033Z,100299.97
2022-10-02T12:42:11.516Z,100368.72
2022-10-02T12:44:47.488Z,100364.03
2022-10-02T12:47:24.363Z,100364.72
2022-10-02T12:49:56.489Z,100363.66
2022-10-02T12:53:09.624Z,100284.25
2022-10-02T12:55:51.877Z,100374.09
2022-10-02T12:58:23.594Z,100368.59
2022-10-02T13:01:09.600Z,100365.75
2022-10-02T13:04:00.828Z,100349.41
2022-10-02T13:07:16.766Z,100360.22
2022-10-02T13:09:50.494Z,100364.50
2022-10-02T13:12:25.585Z,100364.41
2022-10-02T13:15:17.086Z,100371.25
2022-10-02T13:17:47.334Z,100369.44
2022-10-02T13:20:22.367Z,100309.38
2022-10-02T13:22:54.379Z,100321.44
2022-10-02T13:25:34.856Z,100366.19
2022-10-02T13:28:13.401Z,100318.19
2022-10-02T13:30:42.512Z,100369.56
2022-10-02T13:33:17.512Z,100363.31
2022-10-02T13:36:11.095Z,100376.44
2022-10-02T13:39:23.088Z,100371.00
2022-10-02T13:41:58.139Z,100374.41
2022-10-02T13:44:28.593Z,100303.56
2022-10-02T13:47:14.669Z,100382.97
2022-10-02T13:49:54.561Z,100320.47
2022-10-02T13:52:28.205Z,100386.38
2022-10-02T13:55:18.236Z,100395.31
2022-10-02T13:57:54.066Z,100335.03
2022-10-02T14:00:23.933Z,100416.09
2022-10-02T14:03:03.443Z,100429.44
2022-10-02T14:05:35.788Z,100400.75
2022-10-02T14:08:27.983Z,100451.03
2022-10-02T14:11:01.740Z,100396.75
2022-10-02T14:13:46.395Z,100461.22
2022-10-02T14:16:32.618Z,100453.16
2022-10-02T14:19:30.427Z,100474.84
2022-10-02T14:22:06.146Z,100414.09
2022-10-02T14:24:59.545Z,100417.28
2022-10-02T14:27:52.192Z,100435.53
2022-10-02T14:30:20.054Z,100422.28
2022-10-02T14:32:55.428Z,100472.75
2022-10-02T14:35:34.324Z,100463.06
2022-10-02T14:38:14.726Z,100460.59
2022-10-02T14:40:55.598Z,100407.06
2022-10-02T14:43:35.664Z,100443.44
2022-10-02T14:46:08.769Z,100470.97
2022-10-02T14:48:50.422Z,100442.81
2022-10-02T14:51:35.321Z,100467.91
2022-10-02T14:54:19.944Z,100402.88
2022-10-02T14:56:59.532Z,100360.47
2022-10-02T14:59:58.392Z,100477.19
2022-10-02T15:02:34.368Z,100316.28
2022-10-02T15:05:06.911Z,100431.34
2022-10-02T15:07:34.887Z,100434.38
2022-10-02T15:10:07.019Z,100485.50
2022-10-02T15:12:47.484Z,100465.31
2022-10-02T15:15:17.229Z,100488.28
2022-10-02T15:17:57.218Z,100443.88
2022-10-02T15:20:31.886Z,100483.97
2022-10-02T15:23:00.232Z,100484.31
2022-10-02T15:25:51.317Z,100481.25
2022-10-02T15:28:36.422Z,100428.13
2022-10-02T15:31:09.087Z,100492.28
2022-10-02T15:33:37.240Z,100493.16
2022-10-02T15:36:35.469Z,100494.09
2022-10-02T15:39:16.105Z,100503.72
2022-10-02T15:41:46.767Z,100461.22
2022-10-02T15:44:29.493Z,100475.13
2022-10-02T15:46:58.539Z,100514.91
2022-10-02T15:49:36.644Z,100507.22
2022-10-02T15:52:09.101Z,100514.41
2022-10-02T15:54:40.320Z,100521.75
2022-10-02T15:57:28.616Z,100512.56
2022-10-02T16:00:11.880Z,100528.47
2022-10-02T16:02:51.209Z,100526.97
2022-10-02T16:05:24.605Z,100527.16
2022-10-02T16:10:18.241Z,100536.50
2022-10-02T16:12:56.876Z,100513.63
2022-10-02T16:15:28.611Z,100543.09
2022-10-02T16:18:04.873Z,100471.41
2022-10-02T16:20:38.520Z,100554.72
2022-10-02T16:23:25.742Z,100560.97
2022-10-02T16:25:59.243Z,100523.72
2022-10-02T16:28:39.316Z,100550.84
2022-10-02T16:31:18.228Z,100578.44
2022-10-02T16:33:52.537Z,100541.72
2022-10-02T16:36:30.081Z,100574.25
2022-10-02T16:39:05.119Z,100580.56
2022-10-02T16:41:48.985Z,100584.16
2022-10-02T16:44:27.727Z,100556.38
2022-10-02T16:46:59.612Z,100593.31
2022-10-02T16:49:32.465Z,100597.03
2022-10-02T16:52:04.596Z,100597.94
2022-10-02T16:54:38.178Z,100600.81
2022-10-02T16:57:07.359Z,100607.97
2022-10-02T16:59:43.004Z,100599.59
2022-10-02T17:02:18.904Z,100619.66
2022-10-02T17:04:59.317Z,100615.38
2022-10-02T17:07:31.120Z,100554.06
2022-10-02T17:10:02.205Z,100626.22
2022-10-02T17:12:32.397Z,100596.09
2022-10-02T17:15:00.936Z,100625.66
2022-10-02T17:17:32.922Z,100638.97
2022-10-02T17:20:06.055Z,100640.81
2022-10-02T17:22:35.537Z,100646.22
2022-10-02T17:25:07.164Z,100651.56
2022-10-02T17:27:42.688Z,100626.03
2022-10-02T17:30:16.698Z,100630.75
2022-10-02T17:32:56.586Z,100662.41
2022-10-02T17:35:37.858Z,100666.00
2022-10-02T17:38:12.435Z,100643.28
2022-10-02T17:40:40.812Z,100600.44
2022-10-02T17:43:11.926Z,100686.56
2022-10-02T17:45:42.921Z,100676.63
2022-10-02T17:48:24.060Z,100688.72
2022-10-02T17:50:59.535Z,100676.19
2022-10-02T17:54:01.398Z,100658.28
2022-10-02T17:56:39.906Z,100710.91
2022-10-02T17:59:36.315Z,100675.03
2022-10-02T18:02:08.764Z,100723.53
2022-10-02T18:04:41.401Z,100728.88
2022-10-02T18:07:17.411Z,100729.91
2022-10-02T18:09:50.552Z,100731.72
2022-10-02T18:12:33.870Z,100737.91
2022-10-02T18:15:24.485Z,100737.13
2022-10-02T18:18:02.339Z,100736.25
2022-10-02T18:20:34.115Z,100741.59
2022-10-02T18:23:20.208Z,100741.63
2022-10-02T18:25:57.604Z,100700.66
2022-10-02T18:28:37.582Z,100749.63
2022-10-02T18:31:13.471Z,100681.88
2022-10-02T18:33:56.695Z,100746.56
2022-10-02T18:36:37.094Z,100753.34
2022-10-02T18:39:12.719Z,100757.81
2022-10-02T18:41:48.014Z,100725.28
2022-10-02T18:44:22.159Z,100707.28
2022-10-02T18:46:51.764Z,100763.31
2022-10-02T18:49:40.800Z,100769.59
2022-10-02T18:52:28.870Z,100769.69
2022-10-02T18:55:13.212Z,100779.47
2022-10-02T18:57:46.803Z,100787.44
2022-10-02T19:00:17.057Z,100788.41
2022-10-02T19:02:52.043Z,100616.28
2022-10-02T19:05:26.690Z,100757.00
2022-10-02T19:08:00.324Z,100798.19
2022-10-02T19:10:29.627Z,100784.81
2022-10-02T19:12:58.296Z,100802.84
2022-10-02T19:15:27.982Z,100803.69
2022-10-02T19:17:59.850Z,100808.19
2022-10-02T19:20:43.516Z,100818.84
2022-10-02T19:23:20.824Z,100819.75
2022-10-02T19:25:48.315Z,100827.84
2022-10-02T19:28:16.951Z,100826.13
2022-10-02T19:30:47.511Z,100827.91
2022-10-02T19:33:19.967Z,100830.59
2022-10-02T19:35:47.397Z,100834.19
2022-10-02T19:38:21.862Z,100798.91
2022-10-02T19:40:52.399Z,100840.47
2022-10-02T19:43:22.951Z,100845.81
2022-10-02T19:45:51.255Z,100844.94
2022-10-02T19:48:18.929Z,100851.22
2022-10-02T19:50:47.016Z,100854.72
2022-10-02T19:53:21.171Z,100855.69
2022-10-02T19:55:50.082Z,100830.06
2022-10-02T19:58:19.270Z,100859.28
2022-10-02T20:00:47.038Z,100860.22
2022-10-02T20:03:16.119Z,100865.44
2022-10-02T20:05:43.566Z,100869.06
2022-10-02T20:08:14.264Z,100872.59
2022-10-02T20:10:44.779Z,100845.97
2022-10-02T20:13:15.181Z,100870.88
2022-10-02T20:16:01.446Z,100874.47
2022-10-02T20:18:28.875Z,100878.84
2022-10-02T20:21:01.016Z,100881.50
2022-10-02T20:23:29.775Z,100882.56
2022-10-02T20:25:59.299Z,100866.56
2022-10-02T20:28:28.684Z,100896.81
2022-10-02T20:30:57.636Z,100852.31
2022-10-02T20:33:26.852Z,100895.09
2022-10-02T20:35:56.557Z,100904.03
2022-10-02T20:38:27.181Z,100905.81
2022-10-02T20:40:54.881Z,100909.44
2022-10-02T20:43:24.436Z,100908.81
2022-10-02T20:45:58.605Z,100877.13
2022-10-02T20:49:13.498Z,100916.63
2022-10-02T20:52:07.201Z,100914.06
2022-10-02T20:54:43.600Z,100927.44
2022-10-02T20:57:56.255Z,100902.44
2022-10-02T21:00:27.076Z,100925.81
2022-10-02T21:03:27.314Z,100920.75
2022-10-02T21:06:09.467Z,100934.84
2022-10-02T21:08:47.659Z,100940.09
2022-10-02T21:11:19.954Z,100934.84
2022-10-02T21:14:09.167Z,100922.38
2022-10-02T21:16:54.208Z,100955.19
2022-10-02T21:19:45.430Z,100910.56
2022-10-02T21:22:45.301Z,100950.03
2022-10-02T21:25:39.040Z,100962.47
2022-10-02T21:28:27.294Z,100963.41
2022-10-02T21:30:58.977Z,100964.38
2022-10-02T21:33:29.493Z,100960.75
2022-10-02T21:35:57.201Z,100930.91
2022-10-02T21:39:24.252Z,100967.13
2022-10-02T21:42:08.524Z,100968.19
2022-10-02T21:45:09.815Z,100980.44
2022-10-02T21:47:43.571Z,100982.28
2022-10-02T21:51:12.013Z,100991.16
2022-10-02T21:54:18.795Z,100983.41
2022-10-02T21:57:17.419Z,100991.41
2022-10-02T22:00:07.129Z,101004.78
2022-10-02T22:02:44.476Z,101008.28
2022-10-02T22:05:46.897Z,101004.78
2022-10-02T22:08:18.116Z,101007.53
2022-10-02T22:10:50.562Z,101015.50
2022-10-02T22:13:25.176Z,100997.44
2022-10-02T22:16:00.602Z,101013.75
2022-10-02T22:18:30.736Z,101014.72
2022-10-02T22:21:01.620Z,101025.59
2022-10-02T22:23:55.922Z,101019.25
2022-10-02T22:26:31.314Z,101023.72
2022-10-02T22:29:01.091Z,101024.81
2022-10-02T22:31:46.248Z,101025.53
2022-10-02T22:34:22.755Z,101029.13
2022-10-02T22:37:03.115Z,100994.84
2022-10-02T22:39:32.051Z,101026.72
2022-10-02T22:42:01.553Z,101024.13
2022-10-02T22:44:34.338Z,101021.84
2022-10-02T22:47:02.966Z,101032.88
2022-10-02T22:49:33.098Z,101032.09
2022-10-02T22:52:01.595Z,101024.28
2022-10-02T22:54:32.744Z,101029.59
2022-10-02T22:57:08.114Z,101029.59
2022-10-02T22:59:40.046Z,101029.59
2022-10-02T23:02:10.326Z,101026.16
2022-10-02T23:04:40.040Z,100964.63
2022-10-02T23:07:11.896Z,101036.38
2022-10-02T23:09:42.587Z,101040.72
2022-10-02T23:12:12.597Z,101038.06
2022-10-02T23:14:51.976Z,101033.97
2022-10-02T23:17:22.227Z,101044.44
2022-10-02T23:19:50.891Z,101039.19
2022-10-02T23:22:23.643Z,100988.41
2022-10-02T23:24:53.946Z,100970.41
2022-10-02T23:27:23.069Z,101053.16
2022-10-02T23:29:54.535Z,101056.75
2022-10-02T23:32:25.015Z,101055.88
2022-10-02T23:34:54.869Z,101017.50
2022-10-02T23:37:23.939Z,101018.22
2022-10-02T23:39:55.060Z,101053.38
2022-10-02T23:42:26.476Z,100996.69
2022-10-02T23:44:57.990Z,101061.50
2022-10-02T23:47:30.168Z,101026.25
2022-10-02T23:49:58.452Z,101062.47
2022-10-02T23:52:35.225Z,101063.06
2022-10-02T23:55:22.334Z,101064.09
2022-10-02T23:58:13.491Z,101064.47
